CheckWX is a tool to help pilots better visualize weather data.  It is not intended as a substitute for an official pre-flight weather briefing.

08:48:49 UTC

KDLO METAR
Delano Municipal Airport
Delano, California, USA
Current

14 mins ago

KDLO 060835Z AUTO 00000KT 10SM CLR 08/06 A3011 RMK AO2 T00750061
Observed
Dec-6 @ 08:35 UTC
Visibility
10 SM
Flight Rules
VFR
Cloud Levels
  • Clear skies
Temperature
C / 46°F
Dewpoint
C / 43°F
Humidity
87%
Altimeter
30.11" Hg
Pressure
1019.62 hPa
Previous

34 mins ago

KDLO 060815Z AUTO 12004KT 10SM CLR 07/06 A3011 RMK AO2 T00710058
Observed
Dec-6 @ 08:15 UTC
Wind
  • 120° at 4 KTS
Visibility
10 SM
Flight Rules
VFR
Cloud Levels
  • Clear skies
Temperature
C / 45°F
Dewpoint
C / 43°F
Humidity
93%
Altimeter
30.11" Hg
Pressure
1019.62 hPa
Previous

54 mins ago

KDLO 060755Z AUTO 00000KT 10SM CLR 08/06 A3010 RMK AO2 T00790062 401660035
Observed
Dec-6 @ 07:55 UTC
Visibility
10 SM
Flight Rules
VFR
Cloud Levels
  • Clear skies
Temperature
C / 46°F
Dewpoint
C / 43°F
Humidity
87%
Altimeter
30.1" Hg
Pressure
1019.32 hPa